createdAt,value
2023-03-30T00:00:19.357Z,97084.53
2023-03-30T00:02:47.356Z,97083.78
2023-03-30T00:05:14.204Z,97075.06
2023-03-30T00:07:44.863Z,97069.91
2023-03-30T00:10:14.550Z,97081.34
2023-03-30T00:12:43.529Z,97062.19
2023-03-30T00:15:17.475Z,97055.47
2023-03-30T00:17:44.556Z,97050.19
2023-03-30T00:20:13.015Z,97047.34
2023-03-30T00:22:42.989Z,97048.13
2023-03-30T00:25:11.918Z,97035.78
2023-03-30T00:27:39.399Z,97036.75
2023-03-30T00:30:08.748Z,97026.31
2023-03-30T00:32:35.793Z,97016.78
2023-03-30T00:35:02.691Z,97027.41
2023-03-30T00:37:29.792Z,97010.22
2023-03-30T00:39:56.694Z,97011.69
2023-03-30T00:42:23.896Z,97012.09
2023-03-30T00:45:06.516Z,97019.31
2023-03-30T00:47:37.935Z,97031.75
2023-03-30T00:50:06.118Z,97023.22
2023-03-30T00:52:33.266Z,97024.25
2023-03-30T00:54:59.931Z,97006.06
2023-03-30T00:57:27.073Z,97005.31
2023-03-30T00:59:55.032Z,96994.03
2023-03-30T01:02:21.734Z,96993.22
2023-03-30T01:04:53.129Z,96990.78
2023-03-30T01:07:24.192Z,96990.03
2023-03-30T01:09:52.986Z,96985.06
2023-03-30T01:12:20.339Z,96996.63
2023-03-30T01:14:48.217Z,97001.00
2023-03-30T01:17:57.986Z,97011.53
2023-03-30T01:20:33.657Z,96993.34
2023-03-30T01:23:27.972Z,96986.28
2023-03-30T01:26:33.436Z,96980.50
2023-03-30T01:29:20.220Z,96976.09
2023-03-30T01:32:25.924Z,96962.97
2023-03-30T01:35:17.299Z,96957.81
2023-03-30T01:38:08.017Z,96942.06
2023-03-30T01:40:43.403Z,96930.72
2023-03-30T01:43:39.554Z,96929.69
2023-03-30T01:46:18.947Z,96915.72
2023-03-30T01:48:56.032Z,96920.97
2023-03-30T01:51:29.523Z,96922.63
2023-03-30T01:57:55.520Z,96920.41
2023-03-30T02:00:24.269Z,96914.94
2023-03-30T02:03:17.116Z,96916.63
2023-03-30T02:05:47.155Z,96915.75
2023-03-30T02:08:18.708Z,96912.19
2023-03-30T02:10:47.951Z,96906.81
2023-03-30T02:13:16.501Z,96914.81
2023-03-30T02:15:50.339Z,96915.97
2023-03-30T02:18:17.172Z,96908.31
2023-03-30T02:20:43.809Z,96918.25
2023-03-30T02:23:11.467Z,96916.94
2023-03-30T02:25:39.323Z,96917.16
2023-03-30T02:28:08.421Z,96920.50
2023-03-30T02:30:38.678Z,96919.69
2023-03-30T02:33:07.520Z,96930.09
2023-03-30T02:35:51.503Z,96925.75
2023-03-30T02:38:30.776Z,96928.38
2023-03-30T02:41:35.881Z,96920.72
2023-03-30T02:44:05.536Z,96925.16
2023-03-30T02:46:37.946Z,96920.00
2023-03-30T02:49:34.193Z,96930.50
2023-03-30T02:52:39.411Z,96934.91
2023-03-30T02:55:22.315Z,96921.03
2023-03-30T02:58:03.025Z,96924.72
2023-03-30T03:00:38.826Z,96930.78
2023-03-30T03:03:14.865Z,96939.91
2023-03-30T03:05:43.144Z,96938.44
2023-03-30T03:08:12.658Z,96940.31
2023-03-30T03:10:39.117Z,96944.19
2023-03-30T03:13:05.643Z,96951.63
2023-03-30T03:15:32.158Z,96950.31
2023-03-30T03:17:58.749Z,96955.88
2023-03-30T03:20:30.330Z,96952.78
2023-03-30T03:22:56.906Z,96959.25
2023-03-30T03:25:23.388Z,96962.84
2023-03-30T03:27:49.871Z,96959.25
2023-03-30T03:30:16.444Z,96955.78
2023-03-30T03:32:43.005Z,96963.66
2023-03-30T03:35:09.619Z,96958.53
2023-03-30T03:37:36.292Z,96963.66
2023-03-30T03:40:05.425Z,96967.13
2023-03-30T03:42:31.924Z,96961.97
2023-03-30T03:44:58.434Z,96962.19
2023-03-30T03:47:25.019Z,96962.19
2023-03-30T03:49:51.607Z,96962.06
2023-03-30T03:52:18.126Z,96964.69
2023-03-30T03:54:44.659Z,96960.38
2023-03-30T03:57:11.174Z,96965.63
2023-03-30T03:59:37.757Z,96964.69
2023-03-30T04:02:05.540Z,96961.25
2023-03-30T04:04:32.334Z,96953.53
2023-03-30T04:06:58.880Z,96956.56
2023-03-30T04:09:26.017Z,96950.47
2023-03-30T04:11:52.497Z,96934.44
2023-03-30T04:14:19.026Z,96932.56
2023-03-30T04:16:45.557Z,96932.06
2023-03-30T04:19:12.669Z,96924.84
2023-03-30T04:21:41.150Z,96912.44
2023-03-30T04:24:12.152Z,96926.44
2023-03-30T04:26:41.528Z,96932.41
2023-03-30T04:29:08.916Z,96946.19
2023-03-30T04:31:35.954Z,96951.06
2023-03-30T04:34:02.719Z,96934.28
2023-03-30T04:36:29.415Z,96915.78
2023-03-30T04:38:59.784Z,96886.81
2023-03-30T04:41:36.014Z,96883.28
2023-03-30T04:44:04.184Z,96894.59
2023-03-30T04:46:31.208Z,96899.91
2023-03-30T04:48:57.901Z,96896.53
2023-03-30T04:51:24.406Z,96906.88
2023-03-30T04:53:51.014Z,96914.00
2023-03-30T04:56:17.832Z,96924.75
2023-03-30T04:58:44.438Z,96934.63
2023-03-30T05:01:10.965Z,96953.88
2023-03-30T05:03:37.657Z,96965.34
2023-03-30T05:06:04.801Z,96972.06
2023-03-30T05:08:33.341Z,96970.06
2023-03-30T05:11:05.199Z,96959.97
2023-03-30T05:13:32.012Z,96955.88
2023-03-30T05:15:58.614Z,96954.53
2023-03-30T05:18:25.191Z,96951.16
2023-03-30T05:20:51.738Z,96950.56
2023-03-30T05:23:18.274Z,96950.63
2023-03-30T05:25:46.617Z,96952.28
2023-03-30T05:28:13.205Z,96956.75
2023-03-30T05:30:39.724Z,96966.94
2023-03-30T05:33:09.644Z,96963.34
2023-03-30T05:35:39.463Z,96973.97
2023-03-30T05:38:07.400Z,96970.78
2023-03-30T05:40:34.129Z,96975.94
2023-03-30T05:43:00.989Z,96972.34
2023-03-30T05:45:27.486Z,96974.00
2023-03-30T05:47:54.649Z,96973.63
2023-03-30T05:50:22.256Z,96976.88
2023-03-30T05:52:49.352Z,96980.16
2023-03-30T05:55:16.473Z,96964.88
2023-03-30T05:57:43.113Z,96972.16
2023-03-30T06:00:11.321Z,96997.03
2023-03-30T06:02:37.916Z,97008.88
2023-03-30T06:05:04.837Z,97010.75
2023-03-30T06:07:31.511Z,97015.31
2023-03-30T06:09:59.689Z,97028.41
2023-03-30T06:12:26.620Z,97029.97
2023-03-30T06:14:53.185Z,97019.94
2023-03-30T06:17:19.772Z,97020.44
2023-03-30T06:19:46.330Z,97007.81
2023-03-30T06:22:12.881Z,97001.59
2023-03-30T06:24:39.418Z,96991.59
2023-03-30T06:27:05.934Z,96995.69
2023-03-30T06:29:32.686Z,96985.38
2023-03-30T06:31:59.393Z,96993.28
2023-03-30T06:34:26.075Z,96990.41
2023-03-30T06:36:53.876Z,96986.44
2023-03-30T06:39:22.155Z,96997.06
2023-03-30T06:41:48.865Z,96987.50
2023-03-30T06:44:15.460Z,96982.34
2023-03-30T06:46:42.502Z,96993.44
2023-03-30T06:49:12.092Z,97001.22
2023-03-30T06:51:38.917Z,96994.38
2023-03-30T06:54:05.608Z,96988.16
2023-03-30T06:56:32.102Z,96991.75
2023-03-30T06:58:58.899Z,96983.97
2023-03-30T07:01:25.470Z,96978.28
2023-03-30T07:03:53.472Z,96965.63
2023-03-30T07:06:21.149Z,96968.25
2023-03-30T07:08:48.310Z,96959.19
2023-03-30T07:11:14.971Z,96947.19
2023-03-30T07:13:41.537Z,96954.44
2023-03-30T07:16:08.484Z,96954.06
2023-03-30T07:18:35.310Z,96953.84
2023-03-30T07:21:02.141Z,96946.78
2023-03-30T07:23:28.988Z,96939.09
2023-03-30T07:25:55.590Z,96936.69
2023-03-30T07:28:22.360Z,96945.47
2023-03-30T07:30:48.957Z,96953.13
2023-03-30T07:33:15.810Z,96945.91
2023-03-30T07:35:46.529Z,96936.66
2023-03-30T07:38:14.382Z,96937.38
2023-03-30T07:40:41.258Z,96935.69
2023-03-30T07:43:07.808Z,96936.47
2023-03-30T07:45:34.494Z,96930.09
2023-03-30T07:48:01.186Z,96919.75
2023-03-30T07:50:28.076Z,96921.63
2023-03-30T07:52:54.563Z,96922.91
2023-03-30T07:55:21.230Z,96920.78
2023-03-30T07:57:47.835Z,96909.78
2023-03-30T08:00:14.854Z,96900.06
2023-03-30T08:02:42.473Z,96897.34
2023-03-30T08:05:09.632Z,96891.09
2023-03-30T08:07:36.937Z,96884.59
2023-03-30T08:10:04.107Z,96882.91
2023-03-30T08:12:30.676Z,96874.13
2023-03-30T08:14:57.203Z,96869.50
2023-03-30T08:17:23.880Z,96857.91
2023-03-30T08:19:50.474Z,96863.41
2023-03-30T08:22:16.997Z,96847.78
2023-03-30T08:24:43.580Z,96837.38
2023-03-30T08:27:10.192Z,96845.47
2023-03-30T08:29:36.882Z,96832.50
2023-03-30T08:32:03.529Z,96834.53
2023-03-30T08:34:30.258Z,96835.44
2023-03-30T08:36:58.068Z,96819.38
2023-03-30T08:39:24.861Z,96812.53
2023-03-30T08:42:25.298Z,96816.34
2023-03-30T08:44:57.225Z,96824.97
2023-03-30T08:47:34.921Z,96824.16
2023-03-30T08:50:11.468Z,96812.69
2023-03-30T08:52:38.241Z,96817.56
2023-03-30T08:55:05.145Z,96813.28
2023-03-30T08:57:52.599Z,96809.41
2023-03-30T09:00:41.711Z,96819.22
2023-03-30T09:03:19.164Z,96823.16
2023-03-30T09:05:57.177Z,96812.53
2023-03-30T09:08:29.108Z,96801.88
2023-03-30T09:11:01.183Z,96794.50
2023-03-30T09:13:34.328Z,96788.44
2023-03-30T09:16:16.423Z,96760.09
2023-03-30T09:18:46.451Z,96752.84
2023-03-30T09:21:13.431Z,96753.88
2023-03-30T09:23:40.808Z,96760.28
2023-03-30T09:26:31.673Z,96752.06
2023-03-30T09:29:06.330Z,96754.59
2023-03-30T09:32:01.936Z,96759.00
2023-03-30T09:34:44.286Z,96756.09
2023-03-30T09:37:13.469Z,96753.34
2023-03-30T09:39:41.431Z,96751.03
2023-03-30T09:42:13.733Z,96742.66
2023-03-30T09:45:25.343Z,96739.63
2023-03-30T09:47:52.533Z,96743.81
2023-03-30T09:50:26.798Z,96736.97
2023-03-30T09:52:59.980Z,96728.75
2023-03-30T09:55:29.912Z,96727.72
2023-03-30T09:58:13.469Z,96729.28
2023-03-30T10:00:40.729Z,96735.72
2023-03-30T10:03:08.509Z,96734.44
2023-03-30T10:05:37.609Z,96730.25
2023-03-30T10:08:17.388Z,96728.63
2023-03-30T10:10:43.954Z,96732.25
2023-03-30T10:13:16.251Z,96716.47
2023-03-30T10:15:46.142Z,96731.13
2023-03-30T10:18:27.499Z,96738.63
2023-03-30T10:21:02.686Z,96736.38
2023-03-30T10:23:40.036Z,96717.00
2023-03-30T10:26:15.429Z,96720.59
2023-03-30T10:28:55.358Z,96720.25
2023-03-30T10:31:25.657Z,96726.06
2023-03-30T10:33:57.822Z,96730.44
2023-03-30T10:36:30.780Z,96720.44
2023-03-30T10:39:23.901Z,96721.75
2023-03-30T10:41:51.764Z,96719.69
2023-03-30T10:44:24.869Z,96721.22
2023-03-30T10:46:55.414Z,96707.09
2023-03-30T10:49:42.609Z,96713.56
2023-03-30T10:52:14.867Z,96710.00
2023-03-30T10:54:55.551Z,96720.50
2023-03-30T10:57:30.369Z,96715.19
2023-03-30T11:00:12.959Z,96722.56
2023-03-30T11:03:09.470Z,96724.25
2023-03-30T11:05:41.291Z,96717.19
2023-03-30T11:08:13.050Z,96709.28
2023-03-30T11:10:53.205Z,96703.59
2023-03-30T11:13:29.112Z,96708.75
2023-03-30T11:16:04.354Z,96717.25
2023-03-30T11:18:53.233Z,96710.31
2023-03-30T11:21:42.479Z,96706.97
2023-03-30T11:24:17.407Z,96712.84
2023-03-30T11:26:49.714Z,96703.03
2023-03-30T11:29:34.595Z,96701.72
2023-03-30T11:32:26.104Z,96700.56
2023-03-30T11:35:14.482Z,96707.50
2023-03-30T11:38:01.333Z,96707.16
2023-03-30T11:40:35.906Z,96715.56
2023-03-30T11:43:02.387Z,96714.41
2023-03-30T11:45:48.377Z,96715.09
2023-03-30T11:48:28.679Z,96719.44
2023-03-30T11:51:13.550Z,96727.78
2023-03-30T11:54:04.881Z,96725.09
2023-03-30T11:56:39.984Z,96727.59
2023-03-30T11:59:15.509Z,96732.88
2023-03-30T12:02:02.798Z,96738.13
2023-03-30T12:04:47.001Z,96751.94
2023-03-30T12:07:30.348Z,96751.53
2023-03-30T12:10:04.096Z,96756.91
2023-03-30T12:12:36.427Z,96758.31
2023-03-30T12:15:15.868Z,96754.97
2023-03-30T12:18:03.485Z,96763.19
2023-03-30T12:20:33.746Z,96765.03
2023-03-30T12:23:14.962Z,96760.72
2023-03-30T12:25:57.791Z,96762.28
2023-03-30T12:28:32.406Z,96775.03
2023-03-30T12:31:11.012Z,96776.66
2023-03-30T12:33:51.627Z,96793.81
2023-03-30T12:36:40.907Z,96794.44
2023-03-30T12:39:31.335Z,96817.91
2023-03-30T12:42:07.206Z,96817.63
2023-03-30T12:45:15.105Z,96816.69
2023-03-30T12:48:02.889Z,96827.44
2023-03-30T12:50:47.716Z,96839.47
2023-03-30T12:53:36.037Z,96850.53
2023-03-30T12:56:12.159Z,96858.63
2023-03-30T12:58:57.180Z,96862.25
2023-03-30T13:01:37.881Z,96874.78
2023-03-30T13:04:17.953Z,96886.88
2023-03-30T13:07:04.848Z,96892.84
2023-03-30T13:09:34.530Z,96884.72
2023-03-30T13:12:01.368Z,96884.19
2023-03-30T13:14:43.608Z,96883.16
2023-03-30T13:17:19.518Z,96883.00
2023-03-30T13:20:29.927Z,96876.50
2023-03-30T13:23:27.289Z,96852.28
2023-03-30T13:26:34.501Z,96859.22
2023-03-30T13:29:11.597Z,96843.03
2023-03-30T13:32:02.867Z,96844.44
2023-03-30T13:35:05.372Z,96850.38
2023-03-30T13:37:54.034Z,96855.47
2023-03-30T13:40:39.704Z,96854.75
2023-03-30T13:43:26.981Z,96868.13
2023-03-30T13:46:16.504Z,96864.69
2023-03-30T13:49:17.462Z,96861.22
2023-03-30T13:51:45.987Z,96856.47
2023-03-30T13:54:29.339Z,96867.78
2023-03-30T13:57:03.942Z,96857.59
2023-03-30T13:59:33.384Z,96873.91
2023-03-30T14:02:01.990Z,96877.38
2023-03-30T14:04:30.801Z,96885.81
2023-03-30T14:06:58.504Z,96887.84
2023-03-30T14:09:28.345Z,96881.00
2023-03-30T14:12:02.488Z,96892.78
2023-03-30T14:14:29.739Z,96895.75
2023-03-30T14:16:58.720Z,96877.31
2023-03-30T14:19:26.652Z,96880.66
2023-03-30T14:21:58.123Z,96879.81
2023-03-30T14:24:35.307Z,96872.47
2023-03-30T14:27:22.073Z,96872.59
2023-03-30T14:29:51.281Z,96863.97
2023-03-30T14:32:21.313Z,96851.59
2023-03-30T14:34:52.812Z,96849.22
2023-03-30T14:37:22.312Z,96850.63
2023-03-30T14:39:54.896Z,96850.88
2023-03-30T14:42:25.668Z,96855.91
2023-03-30T14:44:55.590Z,96861.78
2023-03-30T14:47:24.933Z,96857.59
2023-03-30T14:49:58.612Z,96856.72
2023-03-30T14:52:31.102Z,96861.66
2023-03-30T14:55:08.021Z,96850.63
2023-03-30T14:57:38.237Z,96838.88
2023-03-30T15:00:26.403Z,96844.75
2023-03-30T15:02:57.008Z,96846.50
2023-03-30T15:05:26.756Z,96859.19
2023-03-30T15:07:53.703Z,96855.06
2023-03-30T15:10:23.269Z,96856.84
2023-03-30T15:12:50.805Z,96863.09
2023-03-30T15:15:24.768Z,96848.81
2023-03-30T15:17:51.602Z,96847.06
2023-03-30T15:20:18.756Z,96858.97
2023-03-30T15:22:48.410Z,96851.19
2023-03-30T15:25:28.794Z,96850.88
2023-03-30T15:28:13.458Z,96840.44
2023-03-30T15:30:43.895Z,96835.50
2023-03-30T15:33:35.106Z,96807.72
2023-03-30T15:36:17.596Z,96792.88
2023-03-30T15:38:51.790Z,96787.00
2023-03-30T15:41:22.300Z,96791.19
2023-03-30T15:43:54.400Z,96778.97
2023-03-30T15:46:21.506Z,96790.00
2023-03-30T15:48:50.698Z,96789.41
2023-03-30T15:51:32.983Z,96789.59
2023-03-30T15:54:03.179Z,96797.31
2023-03-30T15:56:40.379Z,96812.38
2023-03-30T15:59:14.614Z,96807.97
2023-03-30T16:01:51.277Z,96815.88
2023-03-30T16:04:20.721Z,96824.59
2023-03-30T16:06:47.862Z,96818.59
2023-03-30T16:09:16.023Z,96814.28
2023-03-30T16:11:45.061Z,96812.16
2023-03-30T16:14:15.354Z,96817.06
2023-03-30T16:16:41.875Z,96817.31
2023-03-30T16:19:13.089Z,96809.41
2023-03-30T16:21:40.858Z,96805.59
2023-03-30T16:24:08.158Z,96803.19
2023-03-30T16:26:34.998Z,96807.97
2023-03-30T16:29:01.910Z,96801.75
2023-03-30T16:31:28.555Z,96802.28
2023-03-30T16:33:55.159Z,96786.84
2023-03-30T16:36:24.605Z,96790.44
2023-03-30T16:38:51.179Z,96782.31
2023-03-30T16:41:20.446Z,96801.59
2023-03-30T16:43:47.287Z,96796.91
2023-03-30T16:46:18.731Z,96795.25
2023-03-30T16:48:46.307Z,96792.72
2023-03-30T16:51:15.444Z,96797.63
2023-03-30T16:53:42.403Z,96787.81
2023-03-30T16:56:27.562Z,96801.84
2023-03-30T16:58:54.042Z,96806.28
2023-03-30T17:01:20.690Z,96824.38
2023-03-30T17:03:47.295Z,96813.00
2023-03-30T17:06:14.208Z,96817.06
2023-03-30T17:08:42.914Z,96815.38
2023-03-30T17:11:10.747Z,96814.69
2023-03-30T17:13:37.249Z,96812.88
2023-03-30T17:16:03.875Z,96802.81
2023-03-30T17:18:30.667Z,96811.19
2023-03-30T17:20:59.484Z,96815.50
2023-03-30T17:23:28.794Z,96814.78
2023-03-30T17:25:57.466Z,96824.34
2023-03-30T17:28:28.209Z,96822.78
2023-03-30T17:30:57.128Z,96815.72
2023-03-30T17:33:23.792Z,96815.47
2023-03-30T17:35:54.652Z,96831.47
2023-03-30T17:38:21.950Z,96823.06
2023-03-30T17:40:48.801Z,96817.19
2023-03-30T17:43:15.713Z,96812.16
2023-03-30T17:45:42.551Z,96812.16
2023-03-30T17:48:20.041Z,96823.28
2023-03-30T17:50:49.437Z,96823.28
2023-03-30T17:53:20.769Z,96826.97
2023-03-30T17:55:49.923Z,96830.28
2023-03-30T17:58:18.854Z,96834.50
2023-03-30T18:00:46.971Z,96836.16
2023-03-30T18:03:15.778Z,96834.38
2023-03-30T18:05:44.256Z,96839.25
2023-03-30T18:08:14.661Z,96835.16
2023-03-30T18:10:41.226Z,96844.47
2023-03-30T18:13:07.783Z,96848.00
2023-03-30T18:15:34.501Z,96847.59
2023-03-30T18:18:01.302Z,96850.66
2023-03-30T18:20:40.606Z,96848.38
2023-03-30T18:23:07.785Z,96847.34
2023-03-30T18:25:34.605Z,96841.69
2023-03-30T18:28:01.666Z,96840.53
2023-03-30T18:30:29.968Z,96851.19
2023-03-30T18:32:57.528Z,96846.47
2023-03-30T18:35:26.592Z,96851.38
2023-03-30T18:37:54.012Z,96847.22
2023-03-30T18:40:41.904Z,96852.66
2023-03-30T18:43:08.447Z,96859.28
2023-03-30T18:45:41.029Z,96864.34
2023-03-30T18:48:11.231Z,96864.84
2023-03-30T18:50:40.127Z,96868.94
2023-03-30T18:53:11.208Z,96870.53
2023-03-30T18:55:39.587Z,96872.88
2023-03-30T18:58:13.341Z,96872.94
2023-03-30T19:00:39.875Z,96886.66
2023-03-30T19:03:06.548Z,96891.59
2023-03-30T19:05:34.209Z,96886.16
2023-03-30T19:08:01.350Z,96891.41
2023-03-30T19:10:35.853Z,96898.53
2023-03-30T19:13:02.411Z,96892.97
2023-03-30T19:15:32.969Z,96890.84
2023-03-30T19:18:01.067Z,96895.16
2023-03-30T19:20:29.439Z,96881.75
2023-03-30T19:22:56.280Z,96891.56
2023-03-30T19:25:24.801Z,96910.81
2023-03-30T19:28:02.558Z,96899.78
2023-03-30T19:30:32.272Z,96917.38
2023-03-30T19:33:02.032Z,96917.47
2023-03-30T19:35:29.472Z,96912.75
2023-03-30T19:37:56.118Z,96917.88
2023-03-30T19:40:23.696Z,96922.97
2023-03-30T19:42:50.868Z,96916.44
2023-03-30T19:45:19.907Z,96925.47
2023-03-30T19:47:46.473Z,96922.31
2023-03-30T19:50:16.837Z,96930.19
2023-03-30T19:52:43.788Z,96936.19
2023-03-30T19:55:10.826Z,96928.91
2023-03-30T19:57:37.946Z,96925.25
2023-03-30T20:00:12.472Z,96923.56
2023-03-30T20:02:41.102Z,96927.47
2023-03-30T20:05:10.071Z,96919.78
2023-03-30T20:07:37.567Z,96917.06
2023-03-30T20:10:05.665Z,96922.44
2023-03-30T20:12:33.173Z,96927.16
2023-03-30T20:15:00.708Z,96923.38
2023-03-30T20:17:30.804Z,96930.84
2023-03-30T20:20:07.184Z,96924.00
2023-03-30T20:22:39.224Z,96924.66
2023-03-30T20:25:07.892Z,96927.06
2023-03-30T20:27:35.355Z,96932.09
2023-03-30T20:30:03.571Z,96931.03
2023-03-30T20:32:30.258Z,96923.16
2023-03-30T20:34:56.956Z,96921.16
2023-03-30T20:37:23.496Z,96910.63
2023-03-30T20:39:50.561Z,96913.97
2023-03-30T20:42:18.371Z,96906.63
2023-03-30T20:44:50.011Z,96905.56
2023-03-30T20:47:17.748Z,96895.25
2023-03-30T20:49:46.316Z,96896.06
2023-03-30T20:52:13.175Z,96897.00
2023-03-30T20:54:41.146Z,96893.75
2023-03-30T20:57:07.845Z,96889.34
2023-03-30T20:59:34.477Z,96877.34
2023-03-30T21:02:01.006Z,96885.97
2023-03-30T21:04:27.893Z,96897.34
2023-03-30T21:06:54.773Z,96919.47
2023-03-30T21:09:21.396Z,96938.28
2023-03-30T21:11:47.870Z,96953.66
2023-03-30T21:14:14.423Z,96937.94
2023-03-30T21:16:43.754Z,96930.44
2023-03-30T21:19:11.643Z,96930.31
2023-03-30T21:21:38.554Z,96922.38
2023-03-30T21:24:06.561Z,96916.19
2023-03-30T21:26:33.223Z,96911.56
2023-03-30T21:28:59.976Z,96894.00
2023-03-30T21:31:26.746Z,96889.59
2023-03-30T21:33:53.747Z,96877.81
2023-03-30T21:36:20.453Z,96872.66
2023-03-30T21:38:46.994Z,96861.53
2023-03-30T21:41:24.258Z,96846.72
2023-03-30T21:43:51.013Z,96851.53
2023-03-30T21:46:20.646Z,96837.88
2023-03-30T21:48:51.170Z,96839.25
2023-03-30T21:51:27.897Z,96844.19
2023-03-30T21:53:55.874Z,96848.91
2023-03-30T21:56:24.172Z,96854.66
2023-03-30T21:58:51.031Z,96863.97
2023-03-30T22:01:19.187Z,96864.69
2023-03-30T22:03:46.269Z,96861.19
2023-03-30T22:06:14.554Z,96850.56
2023-03-30T22:08:41.168Z,96846.84
2023-03-30T22:11:11.702Z,96850.06
2023-03-30T22:13:38.236Z,96848.25
2023-03-30T22:16:16.870Z,96836.63
2023-03-30T22:18:44.228Z,96844.28
2023-03-30T22:21:15.642Z,96836.06
2023-03-30T22:23:42.185Z,96836.53
2023-03-30T22:26:09.259Z,96834.28
2023-03-30T22:28:36.184Z,96836.66
2023-03-30T22:31:07.096Z,96832.91
2023-03-30T22:33:33.929Z,96841.25
2023-03-30T22:36:03.092Z,96838.81
2023-03-30T22:38:31.280Z,96830.28
2023-03-30T22:41:07.929Z,96840.41
2023-03-30T22:43:35.825Z,96834.66
2023-03-30T22:46:03.249Z,96830.00
2023-03-30T22:48:30.406Z,96830.47
2023-03-30T22:51:02.086Z,96828.22
2023-03-30T22:53:32.793Z,96839.81
2023-03-30T22:56:00.597Z,96825.28
2023-03-30T22:58:27.424Z,96826.25
2023-03-30T23:00:59.713Z,96824.56
2023-03-30T23:03:26.423Z,96825.56
2023-03-30T23:05:53.146Z,96820.44
2023-03-30T23:08:20.016Z,96824.19
2023-03-30T23:10:46.500Z,96821.56
2023-03-30T23:13:14.051Z,96819.97
2023-03-30T23:15:40.759Z,96818.38
2023-03-30T23:18:07.827Z,96822.66
2023-03-30T23:20:34.545Z,96820.13
2023-03-30T23:23:01.141Z,96810.66
2023-03-30T23:25:27.626Z,96812.56
2023-03-30T23:27:54.115Z,96812.56
2023-03-30T23:30:20.728Z,96816.28
2023-03-30T23:32:47.308Z,96799.72
2023-03-30T23:35:13.935Z,96788.41
2023-03-30T23:37:40.979Z,96788.53
2023-03-30T23:40:08.405Z,96786.91
2023-03-30T23:42:35.039Z,96778.59
2023-03-30T23:45:01.660Z,96771.06
2023-03-30T23:47:28.400Z,96771.06
2023-03-30T23:49:55.145Z,96772.84
2023-03-30T23:52:21.692Z,96771.16
2023-03-30T23:54:52.217Z,96774.78
2023-03-30T23:57:19.995Z,96766.28
2023-03-30T23:59:46.900Z,96761.13
